sensor_id;sensor_type;location;lat;lon;timestamp;P1;durP1;ratioP1;P2;durP2;ratioP2
48205;SDS011;33995;48.202;16.260;2023-02-11T00:00:56;33.37;;;24.87;;
48205;SDS011;33995;48.202;16.260;2023-02-11T00:03:31;34.87;;;24.87;;
48205;SDS011;33995;48.202;16.260;2023-02-11T00:06:00;34.77;;;24.37;;
48205;SDS011;33995;48.202;16.260;2023-02-11T00:08:38;34.30;;;24.10;;
48205;SDS011;33995;48.202;16.260;2023-02-11T00:11:15;32.07;;;23.23;;
48205;SDS011;33995;48.202;16.260;2023-02-11T00:13:47;34.57;;;23.87;;
48205;SDS011;33995;48.202;16.260;2023-02-11T00:16:18;32.67;;;24.07;;
48205;SDS011;33995;48.202;16.260;2023-02-11T00:18:47;33.07;;;24.10;;
48205;SDS011;33995;48.202;16.260;2023-02-11T00:21:20;32.27;;;24.03;;
48205;SDS011;33995;48.202;16.260;2023-02-11T00:23:53;33.17;;;23.00;;
48205;SDS011;33995;48.202;16.260;2023-02-11T00:26:35;33.43;;;22.87;;
48205;SDS011;33995;48.202;16.260;2023-02-11T00:29:05;35.57;;;23.67;;
48205;SDS011;33995;48.202;16.260;2023-02-11T00:31:44;31.10;;;23.00;;
48205;SDS011;33995;48.202;16.260;2023-02-11T00:34:14;31.87;;;23.20;;
48205;SDS011;33995;48.202;16.260;2023-02-11T00:36:42;33.87;;;23.43;;
48205;SDS011;33995;48.202;16.260;2023-02-11T00:39:14;31.90;;;23.33;;
48205;SDS011;33995;48.202;16.260;2023-02-11T00:41:41;34.13;;;23.57;;
48205;SDS011;33995;48.202;16.260;2023-02-11T00:44:15;31.13;;;22.57;;
48205;SDS011;33995;48.202;16.260;2023-02-11T00:46:42;31.20;;;22.97;;
48205;SDS011;33995;48.202;16.260;2023-02-11T00:49:29;32.67;;;23.10;;
48205;SDS011;33995;48.202;16.260;2023-02-11T00:51:56;32.23;;;22.90;;
48205;SDS011;33995;48.202;16.260;2023-02-11T00:54:27;35.97;;;24.30;;
48205;SDS011;33995;48.202;16.260;2023-02-11T00:56:59;34.07;;;23.47;;
48205;SDS011;33995;48.202;16.260;2023-02-11T00:59:31;33.37;;;24.30;;
48205;SDS011;33995;48.202;16.260;2023-02-11T01:02:03;34.10;;;24.17;;
48205;SDS011;33995;48.202;16.260;2023-02-11T01:04:34;33.07;;;23.97;;
48205;SDS011;33995;48.202;16.260;2023-02-11T01:07:03;34.70;;;24.50;;
48205;SDS011;33995;48.202;16.260;2023-02-11T01:09:36;32.13;;;23.77;;
48205;SDS011;33995;48.202;16.260;2023-02-11T01:12:04;34.33;;;23.73;;
48205;SDS011;33995;48.202;16.260;2023-02-11T01:14:41;31.23;;;22.93;;
48205;SDS011;33995;48.202;16.260;2023-02-11T01:17:10;32.07;;;24.03;;
48205;SDS011;33995;48.202;16.260;2023-02-11T01:19:40;33.47;;;23.07;;
48205;SDS011;33995;48.202;16.260;2023-02-11T01:22:16;32.13;;;22.53;;
48205;SDS011;33995;48.202;16.260;2023-02-11T01:24:46;37.83;;;23.57;;
48205;SDS011;33995;48.202;16.260;2023-02-11T01:27:19;33.10;;;23.40;;
48205;SDS011;33995;48.202;16.260;2023-02-11T01:29:47;31.40;;;22.40;;
48205;SDS011;33995;48.202;16.260;2023-02-11T01:32:14;31.80;;;22.63;;
48205;SDS011;33995;48.202;16.260;2023-02-11T01:34:42;33.30;;;23.30;;
48205;SDS011;33995;48.202;16.260;2023-02-11T01:37:11;30.10;;;21.27;;
48205;SDS011;33995;48.202;16.260;2023-02-11T01:39:45;33.27;;;23.40;;
48205;SDS011;33995;48.202;16.260;2023-02-11T01:42:14;31.83;;;22.13;;
48205;SDS011;33995;48.202;16.260;2023-02-11T01:44:43;34.17;;;24.03;;
48205;SDS011;33995;48.202;16.260;2023-02-11T01:47:19;33.73;;;23.70;;
48205;SDS011;33995;48.202;16.260;2023-02-11T01:49:58;34.70;;;23.73;;
48205;SDS011;33995;48.202;16.260;2023-02-11T01:55:50;32.53;;;22.30;;
48205;SDS011;33995;48.202;16.260;2023-02-11T01:58:40;32.33;;;23.03;;
48205;SDS011;33995;48.202;16.260;2023-02-11T02:01:12;32.17;;;22.50;;
48205;SDS011;33995;48.202;16.260;2023-02-11T02:03:46;34.10;;;23.80;;
48205;SDS011;33995;48.202;16.260;2023-02-11T02:06:29;33.40;;;23.90;;
48205;SDS011;33995;48.202;16.260;2023-02-11T02:09:33;33.03;;;23.37;;
48205;SDS011;33995;48.202;16.260;2023-02-11T02:12:03;34.07;;;23.70;;
48205;SDS011;33995;48.202;16.260;2023-02-11T02:14:39;35.57;;;24.80;;
48205;SDS011;33995;48.202;16.260;2023-02-11T02:17:17;33.73;;;24.37;;
48205;SDS011;33995;48.202;16.260;2023-02-11T02:20:18;35.97;;;24.57;;
48205;SDS011;33995;48.202;16.260;2023-02-11T02:25:59;36.30;;;25.87;;
48205;SDS011;33995;48.202;16.260;2023-02-11T02:34:52;39.67;;;27.03;;
48205;SDS011;33995;48.202;16.260;2023-02-11T02:40:53;39.03;;;27.70;;
48205;SDS011;33995;48.202;16.260;2023-02-11T02:43:24;37.80;;;28.10;;
48205;SDS011;33995;48.202;16.260;2023-02-11T02:45:54;40.60;;;28.70;;
48205;SDS011;33995;48.202;16.260;2023-02-11T02:48:34;36.37;;;26.93;;
48205;SDS011;33995;48.202;16.260;2023-02-11T02:53:57;38.93;;;28.10;;
48205;SDS011;33995;48.202;16.260;2023-02-11T03:02:35;36.23;;;26.97;;
48205;SDS011;33995;48.202;16.260;2023-02-11T03:11:54;38.33;;;26.70;;
48205;SDS011;33995;48.202;16.260;2023-02-11T03:14:25;38.47;;;28.03;;
48205;SDS011;33995;48.202;16.260;2023-02-11T03:16:55;36.90;;;26.53;;
48205;SDS011;33995;48.202;16.260;2023-02-11T03:19:34;35.90;;;26.80;;
48205;SDS011;33995;48.202;16.260;2023-02-11T03:22:07;36.80;;;27.30;;
48205;SDS011;33995;48.202;16.260;2023-02-11T03:24:53;34.23;;;26.43;;
48205;SDS011;33995;48.202;16.260;2023-02-11T03:30:20;34.93;;;26.40;;
48205;SDS011;33995;48.202;16.260;2023-02-11T03:33:50;36.00;;;26.57;;
48205;SDS011;33995;48.202;16.260;2023-02-11T03:36:03;33.53;;;25.77;;
48205;SDS011;33995;48.202;16.260;2023-02-11T03:38:37;37.07;;;26.90;;
48205;SDS011;33995;48.202;16.260;2023-02-11T03:41:20;35.30;;;26.70;;
48205;SDS011;33995;48.202;16.260;2023-02-11T03:43:52;35.73;;;26.63;;
48205;SDS011;33995;48.202;16.260;2023-02-11T03:46:27;36.40;;;26.57;;
48205;SDS011;33995;48.202;16.260;2023-02-11T03:49:08;37.23;;;27.63;;
48205;SDS011;33995;48.202;16.260;2023-02-11T03:51:41;35.83;;;27.33;;
48205;SDS011;33995;48.202;16.260;2023-02-11T03:54:13;37.57;;;26.70;;
48205;SDS011;33995;48.202;16.260;2023-02-11T03:56:50;35.87;;;26.93;;
48205;SDS011;33995;48.202;16.260;2023-02-11T03:59:21;35.80;;;27.50;;
48205;SDS011;33995;48.202;16.260;2023-02-11T04:01:49;35.50;;;26.73;;
48205;SDS011;33995;48.202;16.260;2023-02-11T04:04:22;36.83;;;27.03;;
48205;SDS011;33995;48.202;16.260;2023-02-11T04:06:50;36.47;;;28.00;;
48205;SDS011;33995;48.202;16.260;2023-02-11T04:09:18;36.63;;;27.93;;
48205;SDS011;33995;48.202;16.260;2023-02-11T04:11:48;36.80;;;28.07;;
48205;SDS011;33995;48.202;16.260;2023-02-11T04:14:19;35.13;;;26.60;;
48205;SDS011;33995;48.202;16.260;2023-02-11T04:16:47;35.90;;;27.17;;
48205;SDS011;33995;48.202;16.260;2023-02-11T04:19:16;37.00;;;27.50;;
48205;SDS011;33995;48.202;16.260;2023-02-11T04:21:49;36.37;;;27.40;;
48205;SDS011;33995;48.202;16.260;2023-02-11T04:24:20;38.77;;;27.80;;
48205;SDS011;33995;48.202;16.260;2023-02-11T04:26:59;36.43;;;27.20;;
48205;SDS011;33995;48.202;16.260;2023-02-11T04:29:28;37.20;;;27.97;;
48205;SDS011;33995;48.202;16.260;2023-02-11T04:32:00;37.07;;;27.40;;
48205;SDS011;33995;48.202;16.260;2023-02-11T04:34:30;34.63;;;26.40;;
48205;SDS011;33995;48.202;16.260;2023-02-11T04:36:58;35.80;;;27.27;;
48205;SDS011;33995;48.202;16.260;2023-02-11T04:39:31;34.27;;;26.27;;
48205;SDS011;33995;48.202;16.260;2023-02-11T04:42:02;34.90;;;26.67;;
48205;SDS011;33995;48.202;16.260;2023-02-11T04:44:33;36.27;;;26.07;;
48205;SDS011;33995;48.202;16.260;2023-02-11T04:47:03;35.23;;;26.50;;
48205;SDS011;33995;48.202;16.260;2023-02-11T04:49:35;35.00;;;25.63;;
48205;SDS011;33995;48.202;16.260;2023-02-11T04:52:02;35.73;;;26.87;;
48205;SDS011;33995;48.202;16.260;2023-02-11T04:54:34;34.00;;;26.37;;
48205;SDS011;33995;48.202;16.260;2023-02-11T04:57:03;34.73;;;26.37;;
48205;SDS011;33995;48.202;16.260;2023-02-11T04:59:34;35.60;;;26.50;;
48205;SDS011;33995;48.202;16.260;2023-02-11T05:02:04;36.63;;;26.87;;
48205;SDS011;33995;48.202;16.260;2023-02-11T05:04:38;34.63;;;27.57;;
48205;SDS011;33995;48.202;16.260;2023-02-11T05:07:08;33.20;;;25.80;;
48205;SDS011;33995;48.202;16.260;2023-02-11T05:09:38;34.67;;;26.63;;
48205;SDS011;33995;48.202;16.260;2023-02-11T05:12:08;35.40;;;26.83;;
48205;SDS011;33995;48.202;16.260;2023-02-11T05:14:50;35.30;;;27.07;;
48205;SDS011;33995;48.202;16.260;2023-02-11T05:17:22;35.67;;;27.20;;
48205;SDS011;33995;48.202;16.260;2023-02-11T05:19:52;35.20;;;26.07;;
48205;SDS011;33995;48.202;16.260;2023-02-11T05:22:21;36.03;;;26.33;;
48205;SDS011;33995;48.202;16.260;2023-02-11T05:24:55;31.47;;;24.47;;
48205;SDS011;33995;48.202;16.260;2023-02-11T05:27:27;32.13;;;24.47;;
48205;SDS011;33995;48.202;16.260;2023-02-11T05:29:57;31.00;;;23.97;;
48205;SDS011;33995;48.202;16.260;2023-02-11T05:32:27;30.10;;;23.37;;
48205;SDS011;33995;48.202;16.260;2023-02-11T05:34:56;32.87;;;24.43;;
48205;SDS011;33995;48.202;16.260;2023-02-11T05:37:26;31.70;;;23.27;;
48205;SDS011;33995;48.202;16.260;2023-02-11T05:40:10;30.37;;;23.10;;
48205;SDS011;33995;48.202;16.260;2023-02-11T05:42:45;31.97;;;24.30;;
48205;SDS011;33995;48.202;16.260;2023-02-11T05:45:13;29.00;;;22.57;;
48205;SDS011;33995;48.202;16.260;2023-02-11T05:47:44;29.93;;;23.40;;
48205;SDS011;33995;48.202;16.260;2023-02-11T05:50:11;32.97;;;23.80;;
48205;SDS011;33995;48.202;16.260;2023-02-11T05:52:43;31.03;;;22.60;;
48205;SDS011;33995;48.202;16.260;2023-02-11T05:55:15;27.77;;;22.40;;
48205;SDS011;33995;48.202;16.260;2023-02-11T05:57:46;29.40;;;22.03;;
48205;SDS011;33995;48.202;16.260;2023-02-11T06:00:15;29.97;;;23.03;;
48205;SDS011;33995;48.202;16.260;2023-02-11T06:02:44;29.97;;;22.73;;
48205;SDS011;33995;48.202;16.260;2023-02-11T06:05:18;30.17;;;22.63;;
48205;SDS011;33995;48.202;16.260;2023-02-11T06:07:50;28.60;;;21.63;;
48205;SDS011;33995;48.202;16.260;2023-02-11T06:10:18;28.97;;;21.83;;
48205;SDS011;33995;48.202;16.260;2023-02-11T06:12:50;28.77;;;22.77;;
48205;SDS011;33995;48.202;16.260;2023-02-11T06:15:19;30.30;;;22.03;;
48205;SDS011;33995;48.202;16.260;2023-02-11T06:17:50;28.87;;;21.57;;
48205;SDS011;33995;48.202;16.260;2023-02-11T06:20:23;30.03;;;21.73;;
48205;SDS011;33995;48.202;16.260;2023-02-11T06:22:54;28.70;;;21.80;;
48205;SDS011;33995;48.202;16.260;2023-02-11T06:25:25;26.93;;;21.63;;
48205;SDS011;33995;48.202;16.260;2023-02-11T06:27:56;27.17;;;21.50;;
48205;SDS011;33995;48.202;16.260;2023-02-11T06:30:27;30.23;;;23.03;;
48205;SDS011;33995;48.202;16.260;2023-02-11T06:32:57;30.93;;;23.33;;
48205;SDS011;33995;48.202;16.260;2023-02-11T06:35:25;30.10;;;22.27;;
48205;SDS011;33995;48.202;16.260;2023-02-11T06:37:54;29.53;;;23.80;;
48205;SDS011;33995;48.202;16.260;2023-02-11T06:40:24;26.97;;;21.13;;
48205;SDS011;33995;48.202;16.260;2023-02-11T06:42:52;29.37;;;22.50;;
48205;SDS011;33995;48.202;16.260;2023-02-11T06:45:23;29.83;;;22.67;;
48205;SDS011;33995;48.202;16.260;2023-02-11T06:47:53;30.50;;;23.30;;
48205;SDS011;33995;48.202;16.260;2023-02-11T06:50:20;28.87;;;23.37;;
48205;SDS011;33995;48.202;16.260;2023-02-11T06:52:48;30.83;;;24.07;;
48205;SDS011;33995;48.202;16.260;2023-02-11T06:55:17;29.80;;;22.67;;
48205;SDS011;33995;48.202;16.260;2023-02-11T06:57:47;32.70;;;23.83;;
48205;SDS011;33995;48.202;16.260;2023-02-11T07:00:17;30.40;;;23.53;;
48205;SDS011;33995;48.202;16.260;2023-02-11T07:02:44;30.63;;;22.77;;
48205;SDS011;33995;48.202;16.260;2023-02-11T07:05:13;31.60;;;22.90;;
48205;SDS011;33995;48.202;16.260;2023-02-11T07:07:40;30.47;;;23.37;;
48205;SDS011;33995;48.202;16.260;2023-02-11T07:10:08;30.63;;;23.50;;
48205;SDS011;33995;48.202;16.260;2023-02-11T07:12:36;32.47;;;23.13;;
48205;SDS011;33995;48.202;16.260;2023-02-11T07:15:04;30.80;;;23.37;;
48205;SDS011;33995;48.202;16.260;2023-02-11T07:17:35;31.10;;;23.73;;
48205;SDS011;33995;48.202;16.260;2023-02-11T07:20:07;30.10;;;23.63;;
48205;SDS011;33995;48.202;16.260;2023-02-11T07:22:42;31.23;;;23.30;;
48205;SDS011;33995;48.202;16.260;2023-02-11T07:25:14;28.13;;;23.13;;
48205;SDS011;33995;48.202;16.260;2023-02-11T07:27:44;30.23;;;22.83;;
48205;SDS011;33995;48.202;16.260;2023-02-11T07:30:14;30.10;;;22.33;;
48205;SDS011;33995;48.202;16.260;2023-02-11T07:32:50;30.60;;;22.90;;
48205;SDS011;33995;48.202;16.260;2023-02-11T07:35:18;31.57;;;23.80;;
48205;SDS011;33995;48.202;16.260;2023-02-11T07:37:46;28.43;;;22.23;;
48205;SDS011;33995;48.202;16.260;2023-02-11T07:40:26;33.67;;;25.50;;
48205;SDS011;33995;48.202;16.260;2023-02-11T07:43:02;31.13;;;24.03;;
48205;SDS011;33995;48.202;16.260;2023-02-11T07:45:38;31.53;;;24.70;;
48205;SDS011;33995;48.202;16.260;2023-02-11T07:48:09;32.03;;;23.97;;
48205;SDS011;33995;48.202;16.260;2023-02-11T07:50:44;29.03;;;22.10;;
48205;SDS011;33995;48.202;16.260;2023-02-11T07:53:21;29.70;;;23.50;;
48205;SDS011;33995;48.202;16.260;2023-02-11T07:55:48;27.93;;;21.83;;
48205;SDS011;33995;48.202;16.260;2023-02-11T07:58:26;28.50;;;20.77;;
48205;SDS011;33995;48.202;16.260;2023-02-11T08:01:05;28.53;;;21.70;;
48205;SDS011;33995;48.202;16.260;2023-02-11T08:03:42;27.90;;;20.83;;
48205;SDS011;33995;48.202;16.260;2023-02-11T08:06:11;28.47;;;20.23;;
48205;SDS011;33995;48.202;16.260;2023-02-11T08:08:46;24.70;;;19.13;;
48205;SDS011;33995;48.202;16.260;2023-02-11T08:11:17;24.70;;;19.53;;
48205;SDS011;33995;48.202;16.260;2023-02-11T08:13:47;24.07;;;18.63;;
48205;SDS011;33995;48.202;16.260;2023-02-11T08:16:18;23.63;;;18.47;;
48205;SDS011;33995;48.202;16.260;2023-02-11T08:18:51;24.17;;;18.30;;
48205;SDS011;33995;48.202;16.260;2023-02-11T08:21:30;24.70;;;17.67;;
48205;SDS011;33995;48.202;16.260;2023-02-11T08:24:00;27.83;;;18.60;;
48205;SDS011;33995;48.202;16.260;2023-02-11T08:26:32;25.57;;;18.97;;
48205;SDS011;33995;48.202;16.260;2023-02-11T08:29:04;25.37;;;18.53;;
48205;SDS011;33995;48.202;16.260;2023-02-11T08:31:36;23.63;;;17.53;;
48205;SDS011;33995;48.202;16.260;2023-02-11T08:34:12;25.67;;;18.43;;
48205;SDS011;33995;48.202;16.260;2023-02-11T08:36:54;23.57;;;17.20;;
48205;SDS011;33995;48.202;16.260;2023-02-11T08:39:27;24.47;;;17.43;;
48205;SDS011;33995;48.202;16.260;2023-02-11T08:41:55;27.27;;;18.27;;
48205;SDS011;33995;48.202;16.260;2023-02-11T08:44:28;24.93;;;17.70;;
48205;SDS011;33995;48.202;16.260;2023-02-11T08:46:59;24.37;;;18.23;;
48205;SDS011;33995;48.202;16.260;2023-02-11T08:49:37;24.70;;;19.03;;
48205;SDS011;33995;48.202;16.260;2023-02-11T08:52:10;24.10;;;18.70;;
48205;SDS011;33995;48.202;16.260;2023-02-11T08:54:39;24.67;;;18.30;;
48205;SDS011;33995;48.202;16.260;2023-02-11T08:57:11;24.97;;;18.13;;
48205;SDS011;33995;48.202;16.260;2023-02-11T08:59:38;24.97;;;18.63;;
48205;SDS011;33995;48.202;16.260;2023-02-11T09:02:13;24.87;;;18.87;;
48205;SDS011;33995;48.202;16.260;2023-02-11T09:04:41;26.27;;;18.57;;
48205;SDS011;33995;48.202;16.260;2023-02-11T09:07:16;26.60;;;19.40;;
48205;SDS011;33995;48.202;16.260;2023-02-11T09:09:44;27.07;;;18.57;;
48205;SDS011;33995;48.202;16.260;2023-02-11T09:12:12;25.80;;;18.73;;
48205;SDS011;33995;48.202;16.260;2023-02-11T09:14:41;24.87;;;18.73;;
48205;SDS011;33995;48.202;16.260;2023-02-11T09:17:09;25.60;;;19.43;;
48205;SDS011;33995;48.202;16.260;2023-02-11T09:19:47;25.57;;;18.30;;
48205;SDS011;33995;48.202;16.260;2023-02-11T09:22:15;26.10;;;18.90;;
48205;SDS011;33995;48.202;16.260;2023-02-11T09:24:49;24.87;;;18.77;;
48205;SDS011;33995;48.202;16.260;2023-02-11T09:27:19;26.27;;;18.00;;
48205;SDS011;33995;48.202;16.260;2023-02-11T09:29:48;23.97;;;18.03;;
48205;SDS011;33995;48.202;16.260;2023-02-11T09:32:18;25.27;;;17.93;;
48205;SDS011;33995;48.202;16.260;2023-02-11T09:34:53;23.47;;;18.07;;
48205;SDS011;33995;48.202;16.260;2023-02-11T09:37:21;23.17;;;17.67;;
48205;SDS011;33995;48.202;16.260;2023-02-11T09:39:52;22.30;;;17.50;;
48205;SDS011;33995;48.202;16.260;2023-02-11T09:45:33;20.80;;;17.10;;
48205;SDS011;33995;48.202;16.260;2023-02-11T09:50:50;22.10;;;17.40;;
48205;SDS011;33995;48.202;16.260;2023-02-11T09:53:26;22.37;;;17.17;;
48205;SDS011;33995;48.202;16.260;2023-02-11T09:55:59;22.80;;;16.47;;
48205;SDS011;33995;48.202;16.260;2023-02-11T09:58:32;21.37;;;17.07;;
48205;SDS011;33995;48.202;16.260;2023-02-11T10:04:42;21.73;;;16.83;;
48205;SDS011;33995;48.202;16.260;2023-02-11T10:10:32;19.77;;;15.87;;
48205;SDS011;33995;48.202;16.260;2023-02-11T10:22:24;19.57;;;15.50;;
48205;SDS011;33995;48.202;16.260;2023-02-11T10:25:04;20.07;;;15.97;;
48205;SDS011;33995;48.202;16.260;2023-02-11T10:28:00;17.70;;;14.67;;
48205;SDS011;33995;48.202;16.260;2023-02-11T10:34:03;20.00;;;15.17;;
48205;SDS011;33995;48.202;16.260;2023-02-11T10:36:44;23.97;;;16.20;;
48205;SDS011;33995;48.202;16.260;2023-02-11T10:39:22;23.53;;;16.87;;
48205;SDS011;33995;48.202;16.260;2023-02-11T10:42:01;20.97;;;16.03;;
48205;SDS011;33995;48.202;16.260;2023-02-11T10:47:33;19.53;;;15.50;;
48205;SDS011;33995;48.202;16.260;2023-02-11T10:50:20;17.83;;;15.33;;
48205;SDS011;33995;48.202;16.260;2023-02-11T10:52:52;22.33;;;16.20;;
48205;SDS011;33995;48.202;16.260;2023-02-11T10:55:54;19.83;;;15.57;;
48205;SDS011;33995;48.202;16.260;2023-02-11T10:58:24;18.97;;;15.03;;
48205;SDS011;33995;48.202;16.260;2023-02-11T11:01:13;20.33;;;16.10;;
48205;SDS011;33995;48.202;16.260;2023-02-11T11:03:51;18.70;;;14.43;;
48205;SDS011;33995;48.202;16.260;2023-02-11T11:06:31;20.17;;;15.33;;
48205;SDS011;33995;48.202;16.260;2023-02-11T11:09:01;21.00;;;17.37;;
48205;SDS011;33995;48.202;16.260;2023-02-11T11:11:34;17.90;;;15.30;;
48205;SDS011;33995;48.202;16.260;2023-02-11T11:14:20;18.93;;;15.40;;
48205;SDS011;33995;48.202;16.260;2023-02-11T11:17:18;16.97;;;14.27;;
48205;SDS011;33995;48.202;16.260;2023-02-11T11:23:19;18.77;;;16.00;;
48205;SDS011;33995;48.202;16.260;2023-02-11T11:26:08;18.73;;;15.07;;
48205;SDS011;33995;48.202;16.260;2023-02-11T11:28:48;20.23;;;15.67;;
48205;SDS011;33995;48.202;16.260;2023-02-11T11:31:23;18.73;;;14.37;;
48205;SDS011;33995;48.202;16.260;2023-02-11T11:37:12;16.93;;;12.67;;
48205;SDS011;33995;48.202;16.260;2023-02-11T11:42:27;16.93;;;13.93;;
48205;SDS011;33995;48.202;16.260;2023-02-11T11:48:53;15.60;;;12.43;;
48205;SDS011;33995;48.202;16.260;2023-02-11T11:51:10;14.97;;;12.00;;
48205;SDS011;33995;48.202;16.260;2023-02-11T11:56:33;13.27;;;10.73;;
48205;SDS011;33995;48.202;16.260;2023-02-11T11:59:12;15.20;;;11.57;;
48205;SDS011;33995;48.202;16.260;2023-02-11T12:02:03;14.87;;;11.90;;
48205;SDS011;33995;48.202;16.260;2023-02-11T12:04:48;15.40;;;11.83;;
48205;SDS011;33995;48.202;16.260;2023-02-11T12:13:51;15.03;;;10.60;;
48205;SDS011;33995;48.202;16.260;2023-02-11T12:17:02;13.90;;;9.93;;
48205;SDS011;33995;48.202;16.260;2023-02-11T12:25:24;12.23;;;10.10;;
48205;SDS011;33995;48.202;16.260;2023-02-11T12:41:30;14.87;;;10.87;;
48205;SDS011;33995;48.202;16.260;2023-02-11T12:53:23;16.90;;;12.00;;
48205;SDS011;33995;48.202;16.260;2023-02-11T13:06:36;17.30;;;13.47;;
48205;SDS011;33995;48.202;16.260;2023-02-11T13:09:15;19.80;;;14.97;;
48205;SDS011;33995;48.202;16.260;2023-02-11T13:11:49;19.60;;;14.33;;
48205;SDS011;33995;48.202;16.260;2023-02-11T13:14:31;21.93;;;15.07;;
48205;SDS011;33995;48.202;16.260;2023-02-11T13:17:15;22.17;;;15.00;;
48205;SDS011;33995;48.202;16.260;2023-02-11T13:19:52;19.80;;;14.90;;
48205;SDS011;33995;48.202;16.260;2023-02-11T13:26:17;22.50;;;15.47;;
48205;SDS011;33995;48.202;16.260;2023-02-11T13:28:56;22.40;;;15.97;;
48205;SDS011;33995;48.202;16.260;2023-02-11T13:32:05;23.00;;;16.77;;
48205;SDS011;33995;48.202;16.260;2023-02-11T13:34:53;21.57;;;16.53;;
48205;SDS011;33995;48.202;16.260;2023-02-11T13:37:37;23.23;;;16.47;;
48205;SDS011;33995;48.202;16.260;2023-02-11T13:43:01;21.50;;;16.83;;
48205;SDS011;33995;48.202;16.260;2023-02-11T13:45:51;21.27;;;15.90;;
48205;SDS011;33995;48.202;16.260;2023-02-11T13:48:34;21.50;;;15.60;;
48205;SDS011;33995;48.202;16.260;2023-02-11T13:51:13;20.23;;;15.57;;
48205;SDS011;33995;48.202;16.260;2023-02-11T13:56:35;24.70;;;18.13;;
48205;SDS011;33995;48.202;16.260;2023-02-11T14:02:30;22.33;;;15.03;;
48205;SDS011;33995;48.202;16.260;2023-02-11T14:05:29;21.17;;;15.37;;
48205;SDS011;33995;48.202;16.260;2023-02-11T14:08:23;19.83;;;14.63;;
48205;SDS011;33995;48.202;16.260;2023-02-11T14:14:33;20.33;;;14.53;;
48205;SDS011;33995;48.202;16.260;2023-02-11T14:17:42;19.80;;;14.80;;
48205;SDS011;33995;48.202;16.260;2023-02-11T14:23:20;16.80;;;13.20;;
48205;SDS011;33995;48.202;16.260;2023-02-11T14:41:06;17.17;;;13.30;;
48205;SDS011;33995;48.202;16.260;2023-02-11T14:43:59;16.10;;;12.27;;
48205;SDS011;33995;48.202;16.260;2023-02-11T14:46:50;16.43;;;12.67;;
48205;SDS011;33995;48.202;16.260;2023-02-11T14:49:34;14.50;;;11.90;;
48205;SDS011;33995;48.202;16.260;2023-02-11T14:55:05;16.83;;;12.70;;
48205;SDS011;33995;48.202;16.260;2023-02-11T14:58:10;16.93;;;12.30;;
48205;SDS011;33995;48.202;16.260;2023-02-11T15:01:02;15.37;;;11.50;;
48205;SDS011;33995;48.202;16.260;2023-02-11T15:04:05;15.57;;;11.50;;
48205;SDS011;33995;48.202;16.260;2023-02-11T15:06:52;14.53;;;11.60;;
48205;SDS011;33995;48.202;16.260;2023-02-11T15:09:44;15.40;;;11.53;;
48205;SDS011;33995;48.202;16.260;2023-02-11T15:12:25;14.10;;;11.03;;
48205;SDS011;33995;48.202;16.260;2023-02-11T15:14:57;13.60;;;10.70;;
48205;SDS011;33995;48.202;16.260;2023-02-11T15:17:30;14.10;;;11.07;;
48205;SDS011;33995;48.202;16.260;2023-02-11T15:20:17;14.97;;;10.63;;
48205;SDS011;33995;48.202;16.260;2023-02-11T15:23:06;14.83;;;10.93;;
48205;SDS011;33995;48.202;16.260;2023-02-11T15:25:50;13.13;;;11.23;;
48205;SDS011;33995;48.202;16.260;2023-02-11T15:28:24;15.40;;;10.83;;
48205;SDS011;33995;48.202;16.260;2023-02-11T15:31:03;14.57;;;10.67;;
48205;SDS011;33995;48.202;16.260;2023-02-11T15:33:49;13.90;;;10.83;;
48205;SDS011;33995;48.202;16.260;2023-02-11T15:36:25;15.03;;;11.27;;
48205;SDS011;33995;48.202;16.260;2023-02-11T15:39:16;20.80;;;16.90;;
48205;SDS011;33995;48.202;16.260;2023-02-11T15:42:16;15.43;;;11.70;;
48205;SDS011;33995;48.202;16.260;2023-02-11T15:45:06;14.00;;;11.27;;
48205;SDS011;33995;48.202;16.260;2023-02-11T15:47:59;13.67;;;11.00;;
48205;SDS011;33995;48.202;16.260;2023-02-11T15:50:51;15.53;;;11.83;;
48205;SDS011;33995;48.202;16.260;2023-02-11T15:53:42;13.53;;;11.13;;
48205;SDS011;33995;48.202;16.260;2023-02-11T15:59:18;14.27;;;11.40;;
48205;SDS011;33995;48.202;16.260;2023-02-11T16:02:08;16.40;;;11.60;;
48205;SDS011;33995;48.202;16.260;2023-02-11T16:04:52;14.80;;;11.93;;
48205;SDS011;33995;48.202;16.260;2023-02-11T16:10:31;14.97;;;11.73;;
48205;SDS011;33995;48.202;16.260;2023-02-11T16:15:43;13.23;;;10.80;;
48205;SDS011;33995;48.202;16.260;2023-02-11T16:21:30;14.47;;;12.07;;
48205;SDS011;33995;48.202;16.260;2023-02-11T16:24:05;15.73;;;12.50;;
48205;SDS011;33995;48.202;16.260;2023-02-11T16:26:40;15.93;;;13.03;;
48205;SDS011;33995;48.202;16.260;2023-02-11T16:29:14;17.93;;;12.77;;
48205;SDS011;33995;48.202;16.260;2023-02-11T16:32:25;16.20;;;13.10;;
48205;SDS011;33995;48.202;16.260;2023-02-11T16:34:58;16.73;;;13.43;;
48205;SDS011;33995;48.202;16.260;2023-02-11T16:37:36;16.23;;;13.40;;
48205;SDS011;33995;48.202;16.260;2023-02-11T16:40:08;17.63;;;12.80;;
48205;SDS011;33995;48.202;16.260;2023-02-11T16:42:40;15.90;;;12.60;;
48205;SDS011;33995;48.202;16.260;2023-02-11T16:45:11;15.87;;;13.50;;
48205;SDS011;33995;48.202;16.260;2023-02-11T16:47:42;14.80;;;12.60;;
48205;SDS011;33995;48.202;16.260;2023-02-11T16:50:23;18.00;;;13.17;;
48205;SDS011;33995;48.202;16.260;2023-02-11T16:52:58;17.87;;;13.80;;
48205;SDS011;33995;48.202;16.260;2023-02-11T16:55:35;16.37;;;13.27;;
48205;SDS011;33995;48.202;16.260;2023-02-11T16:58:10;15.80;;;12.73;;
48205;SDS011;33995;48.202;16.260;2023-02-11T17:00:49;16.47;;;13.10;;
48205;SDS011;33995;48.202;16.260;2023-02-11T17:03:20;19.07;;;13.23;;
48205;SDS011;33995;48.202;16.260;2023-02-11T17:05:56;18.20;;;13.67;;
48205;SDS011;33995;48.202;16.260;2023-02-11T17:08:30;17.57;;;13.47;;
48205;SDS011;33995;48.202;16.260;2023-02-11T17:10:59;18.40;;;13.57;;
48205;SDS011;33995;48.202;16.260;2023-02-11T17:13:28;16.57;;;13.43;;
48205;SDS011;33995;48.202;16.260;2023-02-11T17:16:00;17.27;;;14.23;;
48205;SDS011;33995;48.202;16.260;2023-02-11T17:18:29;18.47;;;13.97;;
48205;SDS011;33995;48.202;16.260;2023-02-11T17:20:59;16.90;;;13.43;;
48205;SDS011;33995;48.202;16.260;2023-02-11T17:23:33;16.93;;;13.40;;
48205;SDS011;33995;48.202;16.260;2023-02-11T17:26:03;18.13;;;14.67;;
48205;SDS011;33995;48.202;16.260;2023-02-11T17:28:35;17.97;;;14.33;;
48205;SDS011;33995;48.202;16.260;2023-02-11T17:31:07;19.67;;;14.93;;
48205;SDS011;33995;48.202;16.260;2023-02-11T17:33:36;17.40;;;13.43;;
48205;SDS011;33995;48.202;16.260;2023-02-11T17:36:09;18.83;;;14.60;;
48205;SDS011;33995;48.202;16.260;2023-02-11T17:38:41;19.30;;;14.57;;
48205;SDS011;33995;48.202;16.260;2023-02-11T17:41:16;19.90;;;15.07;;
48205;SDS011;33995;48.202;16.260;2023-02-11T17:43:46;17.53;;;14.20;;
48205;SDS011;33995;48.202;16.260;2023-02-11T17:46:19;19.37;;;14.80;;
48205;SDS011;33995;48.202;16.260;2023-02-11T17:48:49;18.87;;;14.23;;